createdAt,value
2023-03-27T00:01:49.510Z,6.30
2023-03-27T00:03:50.186Z,6.27
2023-03-27T00:05:50.523Z,6.28
2023-03-27T00:07:50.801Z,6.28
2023-03-27T00:09:51.132Z,6.28
2023-03-27T00:11:51.406Z,6.27
2023-03-27T00:13:51.688Z,6.26
2023-03-27T00:15:51.982Z,6.31
2023-03-27T00:17:52.334Z,6.28
2023-03-27T00:19:52.601Z,6.24
2023-03-27T00:21:52.916Z,6.30
2023-03-27T00:23:53.186Z,6.28
2023-03-27T00:25:53.516Z,6.24
2023-03-27T00:27:53.825Z,6.12
2023-03-27T00:29:54.078Z,5.91
2023-03-27T00:31:54.405Z,5.87
2023-03-27T00:33:54.698Z,5.80
2023-03-27T00:35:55.010Z,5.79
2023-03-27T00:37:56.046Z,5.71
2023-03-27T00:39:56.341Z,5.62
2023-03-27T00:41:56.623Z,5.56
2023-03-27T00:43:56.903Z,5.56
2023-03-27T00:45:57.193Z,5.56
2023-03-27T00:47:57.543Z,5.50
2023-03-27T00:49:57.849Z,5.46
2023-03-27T00:51:58.133Z,5.39
2023-03-27T00:53:58.467Z,5.41
2023-03-27T00:55:58.783Z,5.36
2023-03-27T00:57:59.059Z,5.33
2023-03-27T00:59:59.348Z,5.30
2023-03-27T01:01:59.668Z,5.32
2023-03-27T01:03:59.949Z,5.28
2023-03-27T01:06:00.262Z,5.28
2023-03-27T01:08:01.793Z,5.21
2023-03-27T01:10:02.267Z,5.26
2023-03-27T01:12:02.597Z,5.28
2023-03-27T01:14:02.914Z,5.28
2023-03-27T01:16:03.237Z,5.25
2023-03-27T01:18:03.604Z,5.28
2023-03-27T01:20:03.923Z,5.30
2023-03-27T01:22:04.227Z,5.28
2023-03-27T01:24:04.497Z,5.25
2023-03-27T01:26:04.828Z,5.25
2023-03-27T01:28:05.146Z,5.26
2023-03-27T01:30:05.428Z,5.23
2023-03-27T01:32:05.761Z,5.18
2023-03-27T01:34:06.010Z,5.15
2023-03-27T01:36:07.012Z,5.12
2023-03-27T01:38:07.287Z,5.18
2023-03-27T01:40:07.598Z,5.11
2023-03-27T01:42:07.929Z,5.10
2023-03-27T01:44:08.166Z,5.10
2023-03-27T01:46:08.509Z,5.12
2023-03-27T01:48:08.795Z,5.07
2023-03-27T01:50:09.092Z,5.10
2023-03-27T01:52:09.379Z,5.10
2023-03-27T01:54:09.689Z,5.05
2023-03-27T01:56:09.964Z,5.08
2023-03-27T01:58:10.248Z,5.00
2023-03-27T02:00:17.917Z,4.97
2023-03-27T02:02:15.746Z,4.90
2023-03-27T02:04:16.040Z,4.82
2023-03-27T02:06:16.352Z,4.78
2023-03-27T02:08:16.653Z,4.75
2023-03-27T02:10:16.940Z,4.73
2023-03-27T02:12:17.266Z,4.77
2023-03-27T02:14:17.541Z,4.86
2023-03-27T02:16:17.865Z,4.77
2023-03-27T02:18:18.149Z,4.73
2023-03-27T02:20:18.486Z,4.70
2023-03-27T02:22:18.754Z,4.63
2023-03-27T02:24:19.113Z,4.56
2023-03-27T02:26:19.371Z,4.50
2023-03-27T02:28:19.689Z,4.48
2023-03-27T02:30:19.968Z,4.40
2023-03-27T02:32:20.349Z,4.35
2023-03-27T02:34:20.647Z,4.37
2023-03-27T02:36:20.978Z,4.30
2023-03-27T02:38:21.268Z,4.20
2023-03-27T02:40:21.578Z,4.20
2023-03-27T02:42:21.888Z,4.05
2023-03-27T02:44:22.199Z,4.14
2023-03-27T02:46:22.533Z,4.06
2023-03-27T02:48:22.780Z,4.01
2023-03-27T02:50:23.116Z,3.94
2023-03-27T02:52:23.450Z,3.91
2023-03-27T02:54:23.738Z,3.88
2023-03-27T02:56:24.051Z,3.80
2023-03-27T02:58:24.331Z,3.66
2023-03-27T03:00:24.663Z,3.63
2023-03-27T03:02:25.089Z,3.55
2023-03-27T03:04:25.437Z,3.47
2023-03-27T03:06:25.752Z,3.36
2023-03-27T03:08:26.035Z,3.29
2023-03-27T03:10:26.326Z,3.22
2023-03-27T03:12:26.642Z,3.18
2023-03-27T03:14:26.972Z,3.19
2023-03-27T03:16:27.280Z,3.13
2023-03-27T03:18:27.649Z,3.11
2023-03-27T03:20:27.959Z,3.07
2023-03-27T03:22:28.261Z,3.10
2023-03-27T03:24:28.580Z,3.05
2023-03-27T03:26:28.867Z,3.08
2023-03-27T03:28:29.225Z,3.03
2023-03-27T03:30:29.537Z,3.13
2023-03-27T03:32:29.884Z,3.03
2023-03-27T03:34:30.190Z,2.98
2023-03-27T03:36:30.505Z,2.98
2023-03-27T03:38:37.661Z,2.93
2023-03-27T03:40:36.021Z,2.97
2023-03-27T03:42:36.295Z,2.93
2023-03-27T03:44:36.582Z,2.93
2023-03-27T03:46:36.989Z,3.00
2023-03-27T03:48:37.296Z,3.00
2023-03-27T03:50:37.574Z,2.90
2023-03-27T03:52:37.902Z,2.89
2023-03-27T03:54:38.218Z,2.90
2023-03-27T03:56:38.561Z,2.92
2023-03-27T03:58:38.852Z,2.90
2023-03-27T04:00:39.106Z,2.87
2023-03-27T04:02:39.473Z,2.92
2023-03-27T04:04:39.814Z,2.90
2023-03-27T04:06:40.115Z,2.87
2023-03-27T04:08:40.459Z,2.85
2023-03-27T04:10:40.705Z,2.90
2023-03-27T04:12:41.048Z,2.86
2023-03-27T04:14:41.337Z,2.82
2023-03-27T04:16:41.658Z,2.77
2023-03-27T04:18:42.030Z,2.80
2023-03-27T04:20:42.358Z,2.77
2023-03-27T04:22:42.637Z,2.77
2023-03-27T04:24:42.914Z,2.72
2023-03-27T04:26:43.237Z,2.68
2023-03-27T04:28:43.605Z,2.68
2023-03-27T04:30:43.894Z,2.67
2023-03-27T04:32:44.216Z,2.65
2023-03-27T04:34:44.557Z,2.65
2023-03-27T04:36:44.832Z,2.62
2023-03-27T04:38:45.140Z,2.57
2023-03-27T04:40:45.480Z,2.57
2023-03-27T04:42:45.819Z,2.54
2023-03-27T04:44:46.132Z,2.61
2023-03-27T04:46:46.444Z,2.60
2023-03-27T04:48:46.835Z,2.53
2023-03-27T04:50:47.077Z,2.49
2023-03-27T04:52:49.039Z,2.50
2023-03-27T04:54:50.661Z,2.53
2023-03-27T04:56:51.059Z,2.50
2023-03-27T04:58:51.439Z,2.43
2023-03-27T05:00:51.700Z,2.44
2023-03-27T05:02:52.122Z,2.42
2023-03-27T05:04:52.558Z,2.36
2023-03-27T05:06:52.854Z,2.29
2023-03-27T05:08:55.624Z,2.31
2023-03-27T05:10:56.618Z,2.35
2023-03-27T05:12:58.412Z,2.33
2023-03-27T05:15:50.864Z,2.46
2023-03-27T05:18:34.136Z,2.47
